sensor_id;sensor_type;location;lat;lon;timestamp;P1;durP1;ratioP1;P2;durP2;ratioP2
7158;SDS011;63175;52.374;13.132;2023-06-22T00:00:11;13.13;;;12.00;;
7158;SDS011;63175;52.374;13.132;2023-06-22T00:02:40;11.97;;;10.73;;
7158;SDS011;63175;52.374;13.132;2023-06-22T00:05:07;11.90;;;10.70;;
7158;SDS011;63175;52.374;13.132;2023-06-22T00:07:34;12.57;;;11.10;;
7158;SDS011;63175;52.374;13.132;2023-06-22T00:10:01;11.27;;;10.23;;
7158;SDS011;63175;52.374;13.132;2023-06-22T00:12:27;11.70;;;10.47;;
7158;SDS011;63175;52.374;13.132;2023-06-22T00:14:54;12.20;;;10.77;;
7158;SDS011;63175;52.374;13.132;2023-06-22T00:17:21;12.50;;;11.20;;
7158;SDS011;63175;52.374;13.132;2023-06-22T00:19:49;11.77;;;10.77;;
7158;SDS011;63175;52.374;13.132;2023-06-22T00:22:18;11.53;;;10.37;;
7158;SDS011;63175;52.374;13.132;2023-06-22T00:24:54;12.67;;;10.70;;
7158;SDS011;63175;52.374;13.132;2023-06-22T00:27:21;11.83;;;10.83;;
7158;SDS011;63175;52.374;13.132;2023-06-22T00:29:47;11.77;;;10.63;;
7158;SDS011;63175;52.374;13.132;2023-06-22T00:32:14;12.03;;;10.73;;
7158;SDS011;63175;52.374;13.132;2023-06-22T00:34:42;12.37;;;10.17;;
7158;SDS011;63175;52.374;13.132;2023-06-22T00:37:10;12.47;;;11.27;;
7158;SDS011;63175;52.374;13.132;2023-06-22T00:39:37;12.50;;;11.30;;
7158;SDS011;63175;52.374;13.132;2023-06-22T00:42:04;10.73;;;9.83;;
7158;SDS011;63175;52.374;13.132;2023-06-22T00:44:31;12.30;;;11.20;;
7158;SDS011;63175;52.374;13.132;2023-06-22T00:46:58;11.63;;;10.63;;
7158;SDS011;63175;52.374;13.132;2023-06-22T00:49:26;11.67;;;10.60;;
7158;SDS011;63175;52.374;13.132;2023-06-22T00:51:53;10.97;;;9.97;;
7158;SDS011;63175;52.374;13.132;2023-06-22T00:54:21;10.97;;;9.97;;
7158;SDS011;63175;52.374;13.132;2023-06-22T00:56:49;11.07;;;10.07;;
7158;SDS011;63175;52.374;13.132;2023-06-22T00:59:17;12.57;;;11.37;;
7158;SDS011;63175;52.374;13.132;2023-06-22T01:01:44;11.77;;;10.70;;
7158;SDS011;63175;52.374;13.132;2023-06-22T01:04:11;14.47;;;10.30;;
7158;SDS011;63175;52.374;13.132;2023-06-22T01:06:47;11.63;;;10.63;;
7158;SDS011;63175;52.374;13.132;2023-06-22T01:09:22;11.90;;;10.80;;
7158;SDS011;63175;52.374;13.132;2023-06-22T01:11:54;11.30;;;10.20;;
7158;SDS011;63175;52.374;13.132;2023-06-22T01:14:26;11.43;;;10.33;;
7158;SDS011;63175;52.374;13.132;2023-06-22T01:16:58;10.93;;;10.03;;
7158;SDS011;63175;52.374;13.132;2023-06-22T01:19:29;11.50;;;10.50;;
7158;SDS011;63175;52.374;13.132;2023-06-22T01:22:04;11.67;;;10.67;;
7158;SDS011;63175;52.374;13.132;2023-06-22T01:24:44;11.60;;;10.47;;
7158;SDS011;63175;52.374;13.132;2023-06-22T01:27:32;12.77;;;11.63;;
7158;SDS011;63175;52.374;13.132;2023-06-22T01:30:12;11.07;;;10.07;;
7158;SDS011;63175;52.374;13.132;2023-06-22T01:32:41;11.67;;;10.57;;
7158;SDS011;63175;52.374;13.132;2023-06-22T01:35:10;12.03;;;10.90;;
7158;SDS011;63175;52.374;13.132;2023-06-22T01:37:38;12.50;;;11.30;;
7158;SDS011;63175;52.374;13.132;2023-06-22T01:40:05;11.43;;;10.20;;
7158;SDS011;63175;52.374;13.132;2023-06-22T01:42:34;10.83;;;9.67;;
7158;SDS011;63175;52.374;13.132;2023-06-22T01:45:03;11.40;;;10.30;;
7158;SDS011;63175;52.374;13.132;2023-06-22T01:47:32;11.40;;;10.23;;
7158;SDS011;63175;52.374;13.132;2023-06-22T01:50:00;11.63;;;10.53;;
7158;SDS011;63175;52.374;13.132;2023-06-22T01:52:27;10.50;;;9.60;;
7158;SDS011;63175;52.374;13.132;2023-06-22T01:54:54;10.93;;;9.93;;
7158;SDS011;63175;52.374;13.132;2023-06-22T01:57:22;10.00;;;9.10;;
7158;SDS011;63175;52.374;13.132;2023-06-22T01:59:52;11.43;;;10.20;;
7158;SDS011;63175;52.374;13.132;2023-06-22T02:02:27;11.37;;;10.27;;
7158;SDS011;63175;52.374;13.132;2023-06-22T02:05:01;10.07;;;9.27;;
7158;SDS011;63175;52.374;13.132;2023-06-22T02:07:32;10.80;;;9.90;;
7158;SDS011;63175;52.374;13.132;2023-06-22T02:10:02;10.70;;;9.80;;
7158;SDS011;63175;52.374;13.132;2023-06-22T02:12:32;10.43;;;9.53;;
7158;SDS011;63175;52.374;13.132;2023-06-22T02:15:00;10.50;;;9.30;;
7158;SDS011;63175;52.374;13.132;2023-06-22T02:17:28;11.17;;;10.17;;
7158;SDS011;63175;52.374;13.132;2023-06-22T02:19:59;10.77;;;9.80;;
7158;SDS011;63175;52.374;13.132;2023-06-22T02:22:33;11.63;;;10.53;;
7158;SDS011;63175;52.374;13.132;2023-06-22T02:25:00;10.23;;;9.23;;
7158;SDS011;63175;52.374;13.132;2023-06-22T02:27:27;10.67;;;9.67;;
7158;SDS011;63175;52.374;13.132;2023-06-22T02:29:54;10.40;;;9.40;;
7158;SDS011;63175;52.374;13.132;2023-06-22T02:32:21;11.10;;;10.00;;
7158;SDS011;63175;52.374;13.132;2023-06-22T02:34:48;11.43;;;9.60;;
7158;SDS011;63175;52.374;13.132;2023-06-22T02:37:16;10.90;;;9.77;;
7158;SDS011;63175;52.374;13.132;2023-06-22T02:39:43;11.10;;;10.00;;
7158;SDS011;63175;52.374;13.132;2023-06-22T02:42:10;11.30;;;10.30;;
7158;SDS011;63175;52.374;13.132;2023-06-22T02:44:37;11.60;;;10.00;;
7158;SDS011;63175;52.374;13.132;2023-06-22T02:47:04;10.40;;;9.43;;
7158;SDS011;63175;52.374;13.132;2023-06-22T02:49:31;10.43;;;9.43;;
7158;SDS011;63175;52.374;13.132;2023-06-22T02:51:58;10.33;;;9.33;;
7158;SDS011;63175;52.374;13.132;2023-06-22T02:54:26;10.50;;;9.60;;
7158;SDS011;63175;52.374;13.132;2023-06-22T02:56:53;10.73;;;9.73;;
7158;SDS011;63175;52.374;13.132;2023-06-22T02:59:20;9.43;;;8.53;;
7158;SDS011;63175;52.374;13.132;2023-06-22T03:01:48;10.40;;;9.50;;
7158;SDS011;63175;52.374;13.132;2023-06-22T03:04:15;11.70;;;10.60;;
7158;SDS011;63175;52.374;13.132;2023-06-22T03:06:42;11.03;;;10.00;;
7158;SDS011;63175;52.374;13.132;2023-06-22T03:09:09;10.03;;;9.13;;
7158;SDS011;63175;52.374;13.132;2023-06-22T03:11:37;10.73;;;9.80;;
7158;SDS011;63175;52.374;13.132;2023-06-22T03:14:04;10.60;;;9.63;;
7158;SDS011;63175;52.374;13.132;2023-06-22T03:16:31;11.27;;;10.27;;
7158;SDS011;63175;52.374;13.132;2023-06-22T03:18:58;10.53;;;9.63;;
7158;SDS011;63175;52.374;13.132;2023-06-22T03:21:26;11.60;;;10.40;;
7158;SDS011;63175;52.374;13.132;2023-06-22T03:23:54;11.93;;;10.03;;
7158;SDS011;63175;52.374;13.132;2023-06-22T03:26:21;11.60;;;10.20;;
7158;SDS011;63175;52.374;13.132;2023-06-22T03:28:53;11.07;;;9.97;;
7158;SDS011;63175;52.374;13.132;2023-06-22T03:31:20;11.00;;;10.00;;
7158;SDS011;63175;52.374;13.132;2023-06-22T03:33:47;11.00;;;10.00;;
7158;SDS011;63175;52.374;13.132;2023-06-22T03:36:14;10.60;;;9.57;;
7158;SDS011;63175;52.374;13.132;2023-06-22T03:38:43;12.73;;;11.47;;
7158;SDS011;63175;52.374;13.132;2023-06-22T03:41:10;11.20;;;10.10;;
7158;SDS011;63175;52.374;13.132;2023-06-22T03:43:37;11.10;;;10.07;;
7158;SDS011;63175;52.374;13.132;2023-06-22T03:46:06;11.27;;;10.20;;
7158;SDS011;63175;52.374;13.132;2023-06-22T03:48:32;10.97;;;10.07;;
7158;SDS011;63175;52.374;13.132;2023-06-22T03:51:00;11.53;;;10.43;;
7158;SDS011;63175;52.374;13.132;2023-06-22T03:53:28;11.03;;;9.93;;
7158;SDS011;63175;52.374;13.132;2023-06-22T03:55:55;11.17;;;10.07;;
7158;SDS011;63175;52.374;13.132;2023-06-22T03:58:21;12.03;;;10.90;;
7158;SDS011;63175;52.374;13.132;2023-06-22T04:00:49;10.80;;;9.80;;
7158;SDS011;63175;52.374;13.132;2023-06-22T04:03:18;11.27;;;10.17;;
7158;SDS011;63175;52.374;13.132;2023-06-22T04:05:45;11.43;;;10.40;;
7158;SDS011;63175;52.374;13.132;2023-06-22T04:08:12;11.13;;;10.03;;
7158;SDS011;63175;52.374;13.132;2023-06-22T04:10:40;12.50;;;11.30;;
7158;SDS011;63175;52.374;13.132;2023-06-22T04:13:21;11.33;;;10.20;;
7158;SDS011;63175;52.374;13.132;2023-06-22T04:16:03;11.10;;;10.00;;
7158;SDS011;63175;52.374;13.132;2023-06-22T04:31:04;11.97;;;10.90;;
7158;SDS011;63175;52.374;13.132;2023-06-22T04:33:40;16.77;;;11.33;;
7158;SDS011;63175;52.374;13.132;2023-06-22T04:36:21;11.83;;;10.67;;
7158;SDS011;63175;52.374;13.132;2023-06-22T04:39:04;11.33;;;10.33;;
7158;SDS011;63175;52.374;13.132;2023-06-22T04:41:47;13.50;;;11.40;;
7158;SDS011;63175;52.374;13.132;2023-06-22T04:47:46;12.27;;;11.07;;
7158;SDS011;63175;52.374;13.132;2023-06-22T04:50:27;11.67;;;10.53;;
7158;SDS011;63175;52.374;13.132;2023-06-22T04:53:09;14.80;;;9.93;;
7158;SDS011;63175;52.374;13.132;2023-06-22T04:55:50;10.57;;;9.57;;
7158;SDS011;63175;52.374;13.132;2023-06-22T04:58:32;10.00;;;9.07;;
7158;SDS011;63175;52.374;13.132;2023-06-22T05:01:13;10.30;;;9.40;;
7158;SDS011;63175;52.374;13.132;2023-06-22T05:07:11;11.30;;;10.30;;
7158;SDS011;63175;52.374;13.132;2023-06-22T05:09:52;10.97;;;9.37;;
7158;SDS011;63175;52.374;13.132;2023-06-22T05:12:20;9.77;;;8.97;;
7158;SDS011;63175;52.374;13.132;2023-06-22T05:15:01;8.77;;;7.97;;
7158;SDS011;63175;52.374;13.132;2023-06-22T05:17:42;9.17;;;8.40;;
7158;SDS011;63175;52.374;13.132;2023-06-22T05:27:06;8.90;;;8.10;;
7158;SDS011;63175;52.374;13.132;2023-06-22T05:29:48;9.03;;;8.33;;
7158;SDS011;63175;52.374;13.132;2023-06-22T05:32:23;7.73;;;7.13;;
7158;SDS011;63175;52.374;13.132;2023-06-22T05:35:05;8.40;;;7.57;;
7158;SDS011;63175;52.374;13.132;2023-06-22T05:37:47;9.03;;;8.33;;
7158;SDS011;63175;52.374;13.132;2023-06-22T05:40:28;9.37;;;8.30;;
7158;SDS011;63175;52.374;13.132;2023-06-22T05:43:14;9.03;;;8.23;;
7158;SDS011;63175;52.374;13.132;2023-06-22T05:45:55;8.77;;;8.00;;
7158;SDS011;63175;52.374;13.132;2023-06-22T05:48:37;8.73;;;7.93;;
7158;SDS011;63175;52.374;13.132;2023-06-22T05:51:05;8.27;;;7.57;;
7158;SDS011;63175;52.374;13.132;2023-06-22T05:53:50;7.90;;;7.20;;
7158;SDS011;63175;52.374;13.132;2023-06-22T05:56:33;8.00;;;7.40;;
7158;SDS011;63175;52.374;13.132;2023-06-22T06:05:26;7.70;;;7.10;;
7158;SDS011;63175;52.374;13.132;2023-06-22T06:08:07;7.37;;;6.77;;
7158;SDS011;63175;52.374;13.132;2023-06-22T06:10:52;8.10;;;6.50;;
7158;SDS011;63175;52.374;13.132;2023-06-22T06:15:59;6.87;;;6.13;;
7158;SDS011;63175;52.374;13.132;2023-06-22T06:18:28;8.77;;;5.87;;
7158;SDS011;63175;52.374;13.132;2023-06-22T06:20:55;6.27;;;5.77;;
7158;SDS011;63175;52.374;13.132;2023-06-22T06:23:22;6.10;;;5.50;;
7158;SDS011;63175;52.374;13.132;2023-06-22T06:25:49;6.37;;;4.97;;
7158;SDS011;63175;52.374;13.132;2023-06-22T06:28:16;5.80;;;5.30;;
7158;SDS011;63175;52.374;13.132;2023-06-22T06:30:43;5.70;;;5.30;;
7158;SDS011;63175;52.374;13.132;2023-06-22T06:33:12;6.33;;;5.83;;
7158;SDS011;63175;52.374;13.132;2023-06-22T06:35:40;6.83;;;6.23;;
7158;SDS011;63175;52.374;13.132;2023-06-22T06:38:07;6.27;;;5.70;;
7158;SDS011;63175;52.374;13.132;2023-06-22T06:40:34;6.03;;;5.53;;
7158;SDS011;63175;52.374;13.132;2023-06-22T06:43:00;7.47;;;6.33;;
7158;SDS011;63175;52.374;13.132;2023-06-22T06:45:27;6.83;;;6.27;;
7158;SDS011;63175;52.374;13.132;2023-06-22T06:47:56;5.57;;;5.17;;
7158;SDS011;63175;52.374;13.132;2023-06-22T06:50:23;6.03;;;5.53;;
7158;SDS011;63175;52.374;13.132;2023-06-22T06:52:51;6.33;;;5.70;;
7158;SDS011;63175;52.374;13.132;2023-06-22T06:55:18;5.77;;;5.17;;
7158;SDS011;63175;52.374;13.132;2023-06-22T06:57:45;5.40;;;4.93;;
7158;SDS011;63175;52.374;13.132;2023-06-22T07:00:13;4.77;;;4.37;;
7158;SDS011;63175;52.374;13.132;2023-06-22T07:02:41;4.70;;;4.40;;
7158;SDS011;63175;52.374;13.132;2023-06-22T07:05:09;4.80;;;4.30;;
7158;SDS011;63175;52.374;13.132;2023-06-22T07:07:38;4.40;;;4.00;;
7158;SDS011;63175;52.374;13.132;2023-06-22T07:10:06;4.13;;;3.73;;
7158;SDS011;63175;52.374;13.132;2023-06-22T07:12:34;3.67;;;3.47;;
7158;SDS011;63175;52.374;13.132;2023-06-22T07:15:01;4.20;;;3.90;;
7158;SDS011;63175;52.374;13.132;2023-06-22T07:17:30;3.30;;;3.10;;
7158;SDS011;63175;52.374;13.132;2023-06-22T07:19:56;4.07;;;3.83;;
7158;SDS011;63175;52.374;13.132;2023-06-22T07:22:23;4.23;;;3.83;;
7158;SDS011;63175;52.374;13.132;2023-06-22T07:24:50;4.53;;;4.20;;
7158;SDS011;63175;52.374;13.132;2023-06-22T07:27:18;4.80;;;4.40;;
7158;SDS011;63175;52.374;13.132;2023-06-22T07:29:46;4.07;;;3.77;;
7158;SDS011;63175;52.374;13.132;2023-06-22T07:32:13;5.00;;;4.10;;
7158;SDS011;63175;52.374;13.132;2023-06-22T07:34:40;4.43;;;4.10;;
7158;SDS011;63175;52.374;13.132;2023-06-22T07:37:08;4.43;;;4.13;;
7158;SDS011;63175;52.374;13.132;2023-06-22T07:39:35;3.63;;;3.33;;
7158;SDS011;63175;52.374;13.132;2023-06-22T07:42:03;4.30;;;4.00;;
7158;SDS011;63175;52.374;13.132;2023-06-22T07:44:31;5.10;;;4.40;;
7158;SDS011;63175;52.374;13.132;2023-06-22T07:46:58;4.80;;;4.40;;
7158;SDS011;63175;52.374;13.132;2023-06-22T07:49:25;5.10;;;4.60;;
7158;SDS011;63175;52.374;13.132;2023-06-22T07:51:52;5.13;;;4.70;;
7158;SDS011;63175;52.374;13.132;2023-06-22T07:54:18;3.90;;;3.70;;
7158;SDS011;63175;52.374;13.132;2023-06-22T07:56:46;4.17;;;3.77;;
7158;SDS011;63175;52.374;13.132;2023-06-22T07:59:12;4.07;;;3.77;;
7158;SDS011;63175;52.374;13.132;2023-06-22T08:01:41;4.60;;;4.30;;
7158;SDS011;63175;52.374;13.132;2023-06-22T08:04:09;5.00;;;3.93;;
7158;SDS011;63175;52.374;13.132;2023-06-22T08:06:35;4.47;;;4.17;;
7158;SDS011;63175;52.374;13.132;2023-06-22T08:09:02;5.83;;;4.53;;
7158;SDS011;63175;52.374;13.132;2023-06-22T08:11:29;4.50;;;4.00;;
7158;SDS011;63175;52.374;13.132;2023-06-22T08:13:56;4.40;;;4.10;;
7158;SDS011;63175;52.374;13.132;2023-06-22T08:16:23;4.50;;;4.20;;
7158;SDS011;63175;52.374;13.132;2023-06-22T08:18:51;3.97;;;3.60;;
7158;SDS011;63175;52.374;13.132;2023-06-22T08:21:18;4.23;;;3.93;;
7158;SDS011;63175;52.374;13.132;2023-06-22T08:23:45;4.70;;;4.13;;
7158;SDS011;63175;52.374;13.132;2023-06-22T08:26:12;3.80;;;3.50;;
7158;SDS011;63175;52.374;13.132;2023-06-22T08:28:39;4.57;;;4.27;;
7158;SDS011;63175;52.374;13.132;2023-06-22T08:31:06;4.57;;;4.27;;
7158;SDS011;63175;52.374;13.132;2023-06-22T08:33:33;3.60;;;3.40;;
7158;SDS011;63175;52.374;13.132;2023-06-22T08:36:01;4.00;;;3.70;;
7158;SDS011;63175;52.374;13.132;2023-06-22T08:38:31;3.83;;;3.53;;
7158;SDS011;63175;52.374;13.132;2023-06-22T08:40:58;3.67;;;3.47;;
7158;SDS011;63175;52.374;13.132;2023-06-22T08:43:25;3.97;;;3.70;;
7158;SDS011;63175;52.374;13.132;2023-06-22T08:45:52;4.47;;;3.83;;
7158;SDS011;63175;52.374;13.132;2023-06-22T08:48:18;4.70;;;4.27;;
7158;SDS011;63175;52.374;13.132;2023-06-22T08:50:45;3.10;;;2.90;;
7158;SDS011;63175;52.374;13.132;2023-06-22T08:53:13;4.27;;;3.40;;
7158;SDS011;63175;52.374;13.132;2023-06-22T08:55:40;4.10;;;3.50;;
7158;SDS011;63175;52.374;13.132;2023-06-22T08:58:07;3.63;;;3.33;;
7158;SDS011;63175;52.374;13.132;2023-06-22T09:00:34;3.37;;;3.07;;
7158;SDS011;63175;52.374;13.132;2023-06-22T09:03:01;3.17;;;2.97;;
7158;SDS011;63175;52.374;13.132;2023-06-22T09:05:28;5.63;;;3.03;;
7158;SDS011;63175;52.374;13.132;2023-06-22T09:07:55;3.77;;;3.50;;
7158;SDS011;63175;52.374;13.132;2023-06-22T09:10:25;3.30;;;3.10;;
7158;SDS011;63175;52.374;13.132;2023-06-22T09:12:51;3.60;;;3.30;;
7158;SDS011;63175;52.374;13.132;2023-06-22T09:15:18;3.60;;;3.30;;
7158;SDS011;63175;52.374;13.132;2023-06-22T09:17:45;3.20;;;3.00;;
7158;SDS011;63175;52.374;13.132;2023-06-22T09:20:12;4.00;;;3.10;;
7158;SDS011;63175;52.374;13.132;2023-06-22T09:22:39;4.03;;;3.03;;
7158;SDS011;63175;52.374;13.132;2023-06-22T09:25:07;5.37;;;3.43;;
7158;SDS011;63175;52.374;13.132;2023-06-22T09:27:36;4.93;;;3.40;;
7158;SDS011;63175;52.374;13.132;2023-06-22T09:30:03;16.93;;;3.83;;
7158;SDS011;63175;52.374;13.132;2023-06-22T09:32:31;4.60;;;3.50;;
7158;SDS011;63175;52.374;13.132;2023-06-22T09:34:58;7.83;;;3.80;;
7158;SDS011;63175;52.374;13.132;2023-06-22T09:37:28;4.00;;;3.70;;
7158;SDS011;63175;52.374;13.132;2023-06-22T09:39:55;4.20;;;3.60;;
7158;SDS011;63175;52.374;13.132;2023-06-22T09:42:22;6.70;;;3.87;;
7158;SDS011;63175;52.374;13.132;2023-06-22T09:44:50;4.00;;;3.70;;
7158;SDS011;63175;52.374;13.132;2023-06-22T09:47:17;4.23;;;3.83;;
7158;SDS011;63175;52.374;13.132;2023-06-22T09:49:43;4.70;;;4.30;;
7158;SDS011;63175;52.374;13.132;2023-06-22T09:52:10;7.70;;;3.53;;
7158;SDS011;63175;52.374;13.132;2023-06-22T09:54:37;3.43;;;3.23;;
7158;SDS011;63175;52.374;13.132;2023-06-22T09:57:04;4.33;;;3.90;;
7158;SDS011;63175;52.374;13.132;2023-06-22T09:59:31;4.33;;;3.93;;
7158;SDS011;63175;52.374;13.132;2023-06-22T10:01:59;4.70;;;4.20;;
7158;SDS011;63175;52.374;13.132;2023-06-22T10:04:26;4.23;;;3.93;;
7158;SDS011;63175;52.374;13.132;2023-06-22T10:06:53;4.97;;;4.60;;
7158;SDS011;63175;52.374;13.132;2023-06-22T10:09:20;4.40;;;3.97;;
7158;SDS011;63175;52.374;13.132;2023-06-22T10:11:47;5.73;;;4.70;;
7158;SDS011;63175;52.374;13.132;2023-06-22T10:14:14;4.90;;;4.50;;
7158;SDS011;63175;52.374;13.132;2023-06-22T10:16:41;5.07;;;4.67;;
7158;SDS011;63175;52.374;13.132;2023-06-22T10:19:09;4.30;;;4.00;;
7158;SDS011;63175;52.374;13.132;2023-06-22T10:21:36;3.93;;;3.73;;
7158;SDS011;63175;52.374;13.132;2023-06-22T10:24:03;10.20;;;4.20;;
7158;SDS011;63175;52.374;13.132;2023-06-22T10:26:32;4.40;;;4.10;;
7158;SDS011;63175;52.374;13.132;2023-06-22T10:28:58;6.77;;;3.67;;
7158;SDS011;63175;52.374;13.132;2023-06-22T10:31:26;4.70;;;3.80;;
7158;SDS011;63175;52.374;13.132;2023-06-22T10:33:53;6.53;;;3.50;;
7158;SDS011;63175;52.374;13.132;2023-06-22T10:36:22;3.37;;;3.17;;
7158;SDS011;63175;52.374;13.132;2023-06-22T10:38:49;5.80;;;4.03;;
7158;SDS011;63175;52.374;13.132;2023-06-22T10:41:17;4.43;;;4.03;;
7158;SDS011;63175;52.374;13.132;2023-06-22T10:43:44;3.67;;;3.40;;
7158;SDS011;63175;52.374;13.132;2023-06-22T10:46:12;4.00;;;3.70;;
7158;SDS011;63175;52.374;13.132;2023-06-22T10:48:39;3.90;;;3.60;;
7158;SDS011;63175;52.374;13.132;2023-06-22T10:51:05;4.20;;;3.90;;
7158;SDS011;63175;52.374;13.132;2023-06-22T10:53:34;4.17;;;3.87;;
7158;SDS011;63175;52.374;13.132;2023-06-22T10:56:00;4.50;;;4.17;;
7158;SDS011;63175;52.374;13.132;2023-06-22T10:58:27;4.40;;;4.00;;
7158;SDS011;63175;52.374;13.132;2023-06-22T11:00:54;4.53;;;4.13;;
7158;SDS011;63175;52.374;13.132;2023-06-22T11:03:21;5.13;;;4.67;;
7158;SDS011;63175;52.374;13.132;2023-06-22T11:05:48;5.33;;;4.30;;
7158;SDS011;63175;52.374;13.132;2023-06-22T11:08:15;4.63;;;4.30;;
7158;SDS011;63175;52.374;13.132;2023-06-22T11:10:43;3.43;;;3.23;;
7158;SDS011;63175;52.374;13.132;2023-06-22T11:13:10;3.40;;;3.10;;
7158;SDS011;63175;52.374;13.132;2023-06-22T11:15:37;3.80;;;3.60;;
7158;SDS011;63175;52.374;13.132;2023-06-22T11:18:05;3.30;;;3.10;;
7158;SDS011;63175;52.374;13.132;2023-06-22T11:20:32;3.73;;;3.53;;
7158;SDS011;63175;52.374;13.132;2023-06-22T11:23:03;4.03;;;3.73;;
7158;SDS011;63175;52.374;13.132;2023-06-22T11:25:31;4.27;;;3.97;;
7158;SDS011;63175;52.374;13.132;2023-06-22T11:28:01;3.90;;;3.60;;
7158;SDS011;63175;52.374;13.132;2023-06-22T11:30:28;3.30;;;3.10;;
7158;SDS011;63175;52.374;13.132;2023-06-22T11:32:56;3.57;;;3.37;;
7158;SDS011;63175;52.374;13.132;2023-06-22T11:35:23;3.97;;;3.67;;
7158;SDS011;63175;52.374;13.132;2023-06-22T11:37:50;3.63;;;3.43;;
7158;SDS011;63175;52.374;13.132;2023-06-22T11:40:16;3.60;;;3.40;;
7158;SDS011;63175;52.374;13.132;2023-06-22T11:42:43;3.70;;;3.43;;
7158;SDS011;63175;52.374;13.132;2023-06-22T11:45:11;3.70;;;3.40;;
7158;SDS011;63175;52.374;13.132;2023-06-22T11:47:38;2.90;;;2.80;;
7158;SDS011;63175;52.374;13.132;2023-06-22T11:50:05;3.50;;;3.30;;
7158;SDS011;63175;52.374;13.132;2023-06-22T11:52:33;3.50;;;3.30;;
7158;SDS011;63175;52.374;13.132;2023-06-22T11:55:01;3.33;;;3.20;;
7158;SDS011;63175;52.374;13.132;2023-06-22T11:57:30;3.57;;;3.37;;
7158;SDS011;63175;52.374;13.132;2023-06-22T11:59:59;3.90;;;3.00;;
7158;SDS011;63175;52.374;13.132;2023-06-22T12:02:27;3.90;;;3.70;;
7158;SDS011;63175;52.374;13.132;2023-06-22T12:04:54;2.93;;;2.83;;
7158;SDS011;63175;52.374;13.132;2023-06-22T12:07:21;3.40;;;3.20;;
7158;SDS011;63175;52.374;13.132;2023-06-22T12:09:48;4.37;;;3.30;;
7158;SDS011;63175;52.374;13.132;2023-06-22T12:12:15;3.97;;;3.77;;
7158;SDS011;63175;52.374;13.132;2023-06-22T12:14:41;4.00;;;3.10;;
7158;SDS011;63175;52.374;13.132;2023-06-22T12:17:08;5.63;;;3.47;;
7158;SDS011;63175;52.374;13.132;2023-06-22T12:19:37;4.20;;;4.00;;
7158;SDS011;63175;52.374;13.132;2023-06-22T12:22:04;3.80;;;3.60;;
7158;SDS011;63175;52.374;13.132;2023-06-22T12:24:30;3.10;;;3.00;;
7158;SDS011;63175;52.374;13.132;2023-06-22T12:26:57;3.00;;;2.80;;
7158;SDS011;63175;52.374;13.132;2023-06-22T12:29:24;3.80;;;3.57;;
7158;SDS011;63175;52.374;13.132;2023-06-22T12:31:51;4.07;;;3.87;;
7158;SDS011;63175;52.374;13.132;2023-06-22T12:34:18;3.90;;;3.70;;
7158;SDS011;63175;52.374;13.132;2023-06-22T12:36:46;3.70;;;3.50;;
7158;SDS011;63175;52.374;13.132;2023-06-22T12:39:13;3.77;;;3.57;;
7158;SDS011;63175;52.374;13.132;2023-06-22T12:41:40;3.73;;;3.53;;
7158;SDS011;63175;52.374;13.132;2023-06-22T12:44:07;3.83;;;3.60;;
7158;SDS011;63175;52.374;13.132;2023-06-22T12:46:34;4.23;;;3.93;;
7158;SDS011;63175;52.374;13.132;2023-06-22T12:49:03;3.37;;;3.20;;
7158;SDS011;63175;52.374;13.132;2023-06-22T12:51:30;3.03;;;2.93;;
7158;SDS011;63175;52.374;13.132;2023-06-22T12:53:58;3.67;;;3.30;;
7158;SDS011;63175;52.374;13.132;2023-06-22T12:56:25;3.87;;;3.57;;
7158;SDS011;63175;52.374;13.132;2023-06-22T12:58:51;3.93;;;3.73;;
7158;SDS011;63175;52.374;13.132;2023-06-22T13:01:18;3.77;;;3.47;;
7158;SDS011;63175;52.374;13.132;2023-06-22T13:03:46;3.93;;;3.63;;
7158;SDS011;63175;52.374;13.132;2023-06-22T13:06:12;3.70;;;3.50;;
7158;SDS011;63175;52.374;13.132;2023-06-22T13:08:39;3.60;;;3.30;;
7158;SDS011;63175;52.374;13.132;2023-06-22T13:11:08;3.10;;;2.90;;
7158;SDS011;63175;52.374;13.132;2023-06-22T13:13:34;3.70;;;3.50;;
7158;SDS011;63175;52.374;13.132;2023-06-22T13:16:01;3.10;;;2.90;;
7158;SDS011;63175;52.374;13.132;2023-06-22T13:18:28;3.17;;;3.00;;
7158;SDS011;63175;52.374;13.132;2023-06-22T13:20:55;3.70;;;3.50;;
7158;SDS011;63175;52.374;13.132;2023-06-22T13:23:23;3.87;;;3.67;;
7158;SDS011;63175;52.374;13.132;2023-06-22T13:25:50;3.60;;;3.40;;
7158;SDS011;63175;52.374;13.132;2023-06-22T13:28:18;4.80;;;4.30;;
7158;SDS011;63175;52.374;13.132;2023-06-22T13:30:45;3.97;;;3.67;;
7158;SDS011;63175;52.374;13.132;2023-06-22T13:33:13;3.80;;;3.60;;
7158;SDS011;63175;52.374;13.132;2023-06-22T13:35:40;4.23;;;3.93;;
7158;SDS011;63175;52.374;13.132;2023-06-22T13:38:07;4.00;;;3.80;;
7158;SDS011;63175;52.374;13.132;2023-06-22T13:40:34;3.90;;;3.70;;
7158;SDS011;63175;52.374;13.132;2023-06-22T13:43:02;4.67;;;4.37;;
7158;SDS011;63175;52.374;13.132;2023-06-22T13:45:31;3.50;;;3.30;;
7158;SDS011;63175;52.374;13.132;2023-06-22T13:47:58;3.70;;;3.40;;
7158;SDS011;63175;52.374;13.132;2023-06-22T13:50:25;4.20;;;3.97;;
7158;SDS011;63175;52.374;13.132;2023-06-22T13:52:51;3.80;;;3.50;;
7158;SDS011;63175;52.374;13.132;2023-06-22T13:55:18;3.43;;;3.23;;
7158;SDS011;63175;52.374;13.132;2023-06-22T13:57:46;3.90;;;3.60;;
7158;SDS011;63175;52.374;13.132;2023-06-22T14:00:13;4.80;;;4.40;;
7158;SDS011;63175;52.374;13.132;2023-06-22T14:02:42;4.10;;;3.83;;
7158;SDS011;63175;52.374;13.132;2023-06-22T14:05:09;3.90;;;3.70;;
7158;SDS011;63175;52.374;13.132;2023-06-22T14:07:36;3.80;;;3.50;;
7158;SDS011;63175;52.374;13.132;2023-06-22T14:10:03;3.90;;;3.70;;
7158;SDS011;63175;52.374;13.132;2023-06-22T14:12:31;4.07;;;3.87;;
7158;SDS011;63175;52.374;13.132;2023-06-22T14:14:57;3.97;;;3.67;;
7158;SDS011;63175;52.374;13.132;2023-06-22T14:17:24;4.00;;;3.60;;
7158;SDS011;63175;52.374;13.132;2023-06-22T14:19:52;3.10;;;3.00;;
7158;SDS011;63175;52.374;13.132;2023-06-22T14:22:20;3.17;;;3.00;;
7158;SDS011;63175;52.374;13.132;2023-06-22T14:24:47;4.00;;;3.70;;
7158;SDS011;63175;52.374;13.132;2023-06-22T14:27:15;3.80;;;3.60;;
7158;SDS011;63175;52.374;13.132;2023-06-22T14:29:42;3.93;;;3.70;;
7158;SDS011;63175;52.374;13.132;2023-06-22T14:32:09;3.57;;;3.37;;
7158;SDS011;63175;52.374;13.132;2023-06-22T14:34:36;3.80;;;3.60;;
7158;SDS011;63175;52.374;13.132;2023-06-22T14:37:06;3.70;;;3.50;;
7158;SDS011;63175;52.374;13.132;2023-06-22T14:39:34;4.20;;;3.90;;
7158;SDS011;63175;52.374;13.132;2023-06-22T14:42:01;4.30;;;4.00;;
7158;SDS011;63175;52.374;13.132;2023-06-22T14:44:29;3.67;;;3.47;;
7158;SDS011;63175;52.374;13.132;2023-06-22T14:46:56;4.17;;;3.90;;
7158;SDS011;63175;52.374;13.132;2023-06-22T14:49:22;4.00;;;3.70;;
7158;SDS011;63175;52.374;13.132;2023-06-22T14:51:49;3.90;;;3.70;;
7158;SDS011;63175;52.374;13.132;2023-06-22T14:54:18;4.07;;;3.87;;
7158;SDS011;63175;52.374;13.132;2023-06-22T14:56:45;3.57;;;3.37;;
7158;SDS011;63175;52.374;13.132;2023-06-22T14:59:12;3.77;;;3.57;;
7158;SDS011;63175;52.374;13.132;2023-06-22T15:01:38;4.43;;;4.13;;
7158;SDS011;63175;52.374;13.132;2023-06-22T15:04:05;4.40;;;4.10;;
7158;SDS011;63175;52.374;13.132;2023-06-22T15:06:32;4.63;;;4.33;;
7158;SDS011;63175;52.374;13.132;2023-06-22T15:08:59;3.77;;;3.57;;
7158;SDS011;63175;52.374;13.132;2023-06-22T15:11:27;3.80;;;3.50;;
7158;SDS011;63175;52.374;13.132;2023-06-22T15:13:54;4.00;;;3.80;;
7158;SDS011;63175;52.374;13.132;2023-06-22T15:16:24;4.07;;;3.87;;
7158;SDS011;63175;52.374;13.132;2023-06-22T15:18:51;4.70;;;4.30;;
7158;SDS011;63175;52.374;13.132;2023-06-22T15:21:18;5.57;;;3.80;;
7158;SDS011;63175;52.374;13.132;2023-06-22T15:23:45;4.80;;;4.40;;